createdAt,value
2018-10-19T00:02:09.341Z,27.10
2018-10-19T00:04:37.569Z,26.80
2018-10-19T00:07:05.865Z,26.50
2018-10-19T00:09:34.086Z,26.60
2018-10-19T00:12:02.253Z,27.00
2018-10-19T00:14:30.442Z,27.00
2018-10-19T00:16:58.624Z,27.00
2018-10-19T00:19:26.813Z,27.00
2018-10-19T00:21:54.985Z,27.00
2018-10-19T00:24:23.161Z,27.10
2018-10-19T00:26:51.342Z,27.00
2018-10-19T00:29:19.578Z,27.20
2018-10-19T00:31:47.694Z,27.60
2018-10-19T00:34:15.819Z,27.10
2018-10-19T00:36:44.047Z,27.30
2018-10-19T00:39:13.208Z,27.70
2018-10-19T00:41:41.749Z,27.50
2018-10-19T00:44:10.201Z,27.60
2018-10-19T00:46:38.477Z,27.40
2018-10-19T00:49:06.829Z,27.20
2018-10-19T00:51:35.097Z,26.80
2018-10-19T00:54:03.278Z,26.90
2018-10-19T00:56:31.473Z,27.10
2018-10-19T00:58:59.783Z,26.40
2018-10-19T01:01:27.965Z,26.90
2018-10-19T01:03:56.133Z,27.00
2018-10-19T01:06:24.306Z,27.10
2018-10-19T01:08:52.443Z,27.30
2018-10-19T01:11:20.617Z,27.20
2018-10-19T01:13:48.804Z,27.00
2018-10-19T01:16:17.001Z,27.10
2018-10-19T01:18:45.137Z,26.90
2018-10-19T01:21:13.348Z,27.10
2018-10-19T01:23:41.487Z,27.70
2018-10-19T01:26:09.713Z,26.60
2018-10-19T01:28:37.889Z,27.20
2018-10-19T01:31:06.069Z,27.30
2018-10-19T01:33:34.239Z,27.10
2018-10-19T01:36:02.364Z,27.40
2018-10-19T01:38:30.514Z,27.40
2018-10-19T01:40:58.691Z,27.40
2018-10-19T01:43:27.002Z,26.60
2018-10-19T01:45:56.119Z,27.60
2018-10-19T01:48:24.737Z,27.40
2018-10-19T01:50:52.907Z,27.40
2018-10-19T01:53:21.067Z,27.70
2018-10-19T01:55:49.197Z,27.00
2018-10-19T01:58:17.661Z,27.30
2018-10-19T02:00:45.869Z,27.80
2018-10-19T02:03:14.353Z,27.80
2018-10-19T02:05:42.442Z,27.90
2018-10-19T02:08:11.253Z,28.00
2018-10-19T02:10:39.736Z,28.10
2018-10-19T02:13:08.489Z,28.00
2018-10-19T02:15:37.005Z,28.10
2018-10-19T02:18:05.478Z,28.40
2018-10-19T02:20:33.692Z,27.70
2018-10-19T02:23:01.930Z,28.20
2018-10-19T02:25:30.289Z,28.10
2018-10-19T02:27:58.465Z,28.20
2018-10-19T02:30:26.598Z,28.00
2018-10-19T02:32:54.802Z,27.20
2018-10-19T02:35:22.957Z,27.80
2018-10-19T02:37:51.141Z,27.80
2018-10-19T02:40:19.285Z,27.90
2018-10-19T02:42:47.434Z,27.90
2018-10-19T02:45:15.632Z,28.00
2018-10-19T02:47:43.777Z,27.80
2018-10-19T02:50:11.934Z,27.70
2018-10-19T02:52:40.122Z,27.60
2018-10-19T02:55:09.100Z,27.70
2018-10-19T02:57:37.394Z,27.70
2018-10-19T03:00:07.754Z,28.00
2018-10-19T03:02:35.945Z,27.80
2018-10-19T03:05:04.186Z,27.10
2018-10-19T03:07:32.309Z,27.50
2018-10-19T03:10:00.540Z,27.30
2018-10-19T03:12:28.693Z,28.00
2018-10-19T03:14:56.891Z,27.80
2018-10-19T03:17:25.051Z,28.80
2018-10-19T03:19:53.205Z,28.70
2018-10-19T03:22:21.417Z,28.20
2018-10-19T03:24:49.810Z,28.40
2018-10-19T03:27:18.174Z,28.50
2018-10-19T03:29:46.276Z,28.40
2018-10-19T03:32:14.467Z,28.50
2018-10-19T03:34:42.642Z,28.30
2018-10-19T03:37:10.813Z,29.10
2018-10-19T03:39:38.969Z,27.80
2018-10-19T03:42:07.153Z,27.90
2018-10-19T03:44:35.291Z,28.70
2018-10-19T03:47:03.453Z,27.60
2018-10-19T03:49:31.557Z,28.70
2018-10-19T03:51:59.782Z,28.60
2018-10-19T03:54:27.953Z,28.70
2018-10-19T03:56:56.107Z,28.50
2018-10-19T03:59:24.290Z,28.90
2018-10-19T04:01:52.442Z,29.50
2018-10-19T04:04:20.597Z,29.00
2018-10-19T04:06:48.842Z,29.10
2018-10-19T04:09:17.080Z,29.20
2018-10-19T04:11:45.294Z,29.40
2018-10-19T04:14:13.441Z,29.40
2018-10-19T04:16:41.603Z,29.00
2018-10-19T04:19:10.129Z,29.20
2018-10-19T04:21:38.353Z,29.40
2018-10-19T04:24:06.911Z,29.60
2018-10-19T04:26:35.213Z,29.40
2018-10-19T04:29:03.689Z,29.60
2018-10-19T04:31:31.859Z,29.50
2018-10-19T04:34:00.070Z,30.60
2018-10-19T04:36:28.274Z,30.30
2018-10-19T04:38:56.494Z,30.60
2018-10-19T04:41:24.633Z,30.90
2018-10-19T04:43:52.812Z,30.90
2018-10-19T04:46:21.491Z,30.50
2018-10-19T04:48:49.646Z,30.60
2018-10-19T04:51:17.883Z,31.00
2018-10-19T04:53:46.084Z,30.90
2018-10-19T04:56:14.170Z,30.40
2018-10-19T04:58:42.377Z,31.00
2018-10-19T05:01:10.547Z,30.70
2018-10-19T05:03:38.717Z,30.50
2018-10-19T05:06:06.953Z,30.50
2018-10-19T05:08:35.021Z,29.90
2018-10-19T05:11:03.255Z,30.90
2018-10-19T05:13:31.361Z,31.30
2018-10-19T05:15:59.621Z,31.40
2018-10-19T05:18:28.089Z,31.10
2018-10-19T05:20:56.461Z,31.00
2018-10-19T05:23:24.598Z,31.40
2018-10-19T05:25:52.810Z,30.90
2018-10-19T05:28:20.902Z,31.10
2018-10-19T05:30:49.093Z,30.30
2018-10-19T05:33:17.486Z,31.00
2018-10-19T05:35:47.666Z,30.30
2018-10-19T05:38:15.989Z,30.00
2018-10-19T05:40:44.054Z,30.40
2018-10-19T05:43:12.225Z,31.30
2018-10-19T05:45:40.423Z,31.10
2018-10-19T05:48:08.634Z,31.50
2018-10-19T05:50:36.810Z,31.40
2018-10-19T05:53:05.452Z,31.60
2018-10-19T05:55:33.643Z,32.50
2018-10-19T05:58:01.812Z,32.70
2018-10-19T06:00:29.997Z,32.90
2018-10-19T06:02:58.136Z,32.80
2018-10-19T06:05:26.290Z,32.50
2018-10-19T06:07:55.975Z,33.10
2018-10-19T06:10:24.113Z,33.10
2018-10-19T06:12:52.278Z,31.70
2018-10-19T06:15:20.441Z,33.80
2018-10-19T06:17:48.634Z,33.10
2018-10-19T06:20:16.999Z,33.20
2018-10-19T06:22:45.101Z,33.40
2018-10-19T06:25:13.283Z,33.10
2018-10-19T06:27:41.436Z,33.60
2018-10-19T06:30:09.650Z,33.30
2018-10-19T06:32:38.041Z,33.70
2018-10-19T06:35:06.295Z,31.60
2018-10-19T06:37:34.438Z,32.40
2018-10-19T06:40:02.613Z,33.70
2018-10-19T06:42:30.742Z,33.80
2018-10-19T06:44:58.927Z,33.50
2018-10-19T06:47:27.140Z,34.10
2018-10-19T06:49:55.340Z,35.00
2018-10-19T06:52:23.494Z,35.00
2018-10-19T06:54:51.639Z,33.80
2018-10-19T06:57:20.058Z,34.30
2018-10-19T06:59:48.230Z,33.70
2018-10-19T07:02:16.617Z,34.70
2018-10-19T07:04:44.681Z,34.20
2018-10-19T07:07:13.161Z,34.40
2018-10-19T07:09:41.382Z,34.10
2018-10-19T07:12:09.554Z,32.40
2018-10-19T07:14:37.697Z,33.10
2018-10-19T07:17:05.874Z,33.70
2018-10-19T07:19:34.001Z,33.00
2018-10-19T07:22:02.153Z,32.20
2018-10-19T07:24:30.307Z,33.10
2018-10-19T07:26:58.453Z,31.80
2018-10-19T07:29:26.669Z,31.80
2018-10-19T07:31:54.789Z,31.00
2018-10-19T07:34:22.917Z,31.30
2018-10-19T07:36:51.125Z,30.10
2018-10-19T07:39:19.290Z,34.10
2018-10-19T07:41:47.450Z,29.60
2018-10-19T07:44:15.705Z,31.30
2018-10-19T07:46:43.801Z,34.60
2018-10-19T07:49:12.001Z,33.70
2018-10-19T07:51:40.141Z,32.00
2018-10-19T07:54:08.372Z,33.50
2018-10-19T07:56:36.598Z,33.00
2018-10-19T07:59:05.463Z,30.00
2018-10-19T08:01:33.573Z,32.60
2018-10-19T08:04:01.762Z,29.20
2018-10-19T08:06:30.873Z,29.10
2018-10-19T08:08:59.049Z,30.50
2018-10-19T08:11:27.235Z,28.50
2018-10-19T08:13:55.403Z,28.80
2018-10-19T08:16:23.577Z,29.20
2018-10-19T08:18:51.721Z,32.50
2018-10-19T08:21:19.886Z,30.80
2018-10-19T08:23:48.047Z,29.20
2018-10-19T08:26:16.255Z,30.00
2018-10-19T08:28:44.333Z,30.00
2018-10-19T08:31:12.529Z,31.40
2018-10-19T08:33:40.677Z,28.50
2018-10-19T08:36:08.853Z,28.80
2018-10-19T08:38:37.002Z,29.50
2018-10-19T08:41:05.396Z,31.50
2018-10-19T08:43:33.503Z,32.90
2018-10-19T08:46:07.073Z,29.50
2018-10-19T08:48:35.345Z,28.20
2018-10-19T08:51:03.620Z,29.10
2018-10-19T08:53:31.800Z,28.80
2018-10-19T08:55:59.933Z,29.60
2018-10-19T08:58:28.145Z,29.40
2018-10-19T09:00:56.338Z,30.00
2018-10-19T09:03:24.542Z,29.90
2018-10-19T09:05:52.646Z,30.40
2018-10-19T09:08:20.809Z,29.30
2018-10-19T09:10:49.077Z,29.20
2018-10-19T09:13:17.176Z,28.80
2018-10-19T09:15:45.349Z,27.90
2018-10-19T09:18:13.491Z,27.60
2018-10-19T09:20:42.083Z,27.80
2018-10-19T09:23:10.318Z,28.20
2018-10-19T09:25:38.401Z,27.00
2018-10-19T09:28:06.621Z,26.80
2018-10-19T09:30:35.924Z,27.80
2018-10-19T09:33:04.203Z,26.80
2018-10-19T09:35:32.344Z,26.60
2018-10-19T09:38:00.470Z,25.60
2018-10-19T09:40:28.618Z,25.90
2018-10-19T09:42:56.831Z,26.60
2018-10-19T09:45:24.965Z,25.70
2018-10-19T09:47:53.163Z,25.30
2018-10-19T09:50:21.333Z,24.50
2018-10-19T09:52:49.488Z,23.70
2018-10-19T09:55:17.720Z,23.50
2018-10-19T09:57:45.806Z,23.00
2018-10-19T10:00:19.416Z,23.70
2018-10-19T10:02:48.225Z,23.30
2018-10-19T10:05:16.427Z,22.50
2018-10-19T10:07:44.628Z,21.60
2018-10-19T10:10:12.788Z,22.10
2018-10-19T10:12:40.933Z,22.40
2018-10-19T10:15:09.197Z,21.50
2018-10-19T10:17:37.244Z,21.60
2018-10-19T10:20:06.165Z,20.80
2018-10-19T10:22:34.293Z,19.80
2018-10-19T10:25:02.500Z,19.50
2018-10-19T10:27:30.630Z,20.50
2018-10-19T10:29:58.809Z,19.60
2018-10-19T10:32:27.237Z,20.10
2018-10-19T10:34:55.337Z,19.40
2018-10-19T10:37:23.461Z,19.00
2018-10-19T10:39:51.845Z,19.30
2018-10-19T10:42:20.025Z,18.60
2018-10-19T10:44:49.687Z,18.60
2018-10-19T10:47:17.842Z,18.10
2018-10-19T10:49:46.001Z,17.10
2018-10-19T10:52:14.195Z,18.40
2018-10-19T10:54:42.359Z,18.20
2018-10-19T10:57:10.510Z,18.10
2018-10-19T10:59:38.637Z,17.40
2018-10-19T11:02:06.801Z,18.00
2018-10-19T11:04:35.028Z,18.10
2018-10-19T11:07:03.206Z,17.10
2018-10-19T11:09:31.345Z,17.30
2018-10-19T11:11:59.461Z,16.70
2018-10-19T11:14:27.646Z,15.80
2018-10-19T11:16:55.779Z,16.40
2018-10-19T11:19:23.899Z,16.30
2018-10-19T11:21:52.322Z,15.90
2018-10-19T11:24:20.445Z,15.90
2018-10-19T11:26:48.591Z,15.90
2018-10-19T11:29:16.737Z,16.10
2018-10-19T11:31:44.866Z,16.10
2018-10-19T11:34:13.356Z,15.70
2018-10-19T11:36:41.538Z,15.90
2018-10-19T11:39:10.258Z,14.60
2018-10-19T11:41:38.538Z,15.40
2018-10-19T11:44:06.705Z,14.80
2018-10-19T11:46:35.210Z,14.60
2018-10-19T11:49:03.431Z,13.80
2018-10-19T11:51:31.517Z,13.60
2018-10-19T11:53:59.654Z,14.00
2018-10-19T11:56:27.827Z,13.40
2018-10-19T11:58:56.029Z,14.20
2018-10-19T12:01:24.187Z,14.10
2018-10-19T12:03:52.347Z,13.30
2018-10-19T12:06:20.486Z,14.10
2018-10-19T12:08:48.735Z,13.60
2018-10-19T12:11:16.877Z,13.60
2018-10-19T12:13:45.009Z,12.00
2018-10-19T12:16:13.320Z,13.30
2018-10-19T12:18:41.386Z,12.90
2018-10-19T12:21:09.612Z,13.10
2018-10-19T12:23:37.734Z,13.10
2018-10-19T12:26:05.991Z,12.30
2018-10-19T12:28:34.190Z,12.00
2018-10-19T12:31:02.441Z,12.20
2018-10-19T12:33:30.578Z,11.70
2018-10-19T12:35:58.725Z,10.90
2018-10-19T12:38:26.926Z,10.90
2018-10-19T12:40:55.093Z,11.10
2018-10-19T12:43:23.265Z,10.50
2018-10-19T12:46:29.938Z,10.00
2018-10-19T12:48:58.154Z,10.30
2018-10-19T12:51:26.277Z,10.80
2018-10-19T12:53:54.475Z,10.40
2018-10-19T12:56:23.133Z,10.50
2018-10-19T12:58:52.241Z,9.60
2018-10-19T13:01:21.215Z,8.70
2018-10-19T13:03:49.414Z,8.10
2018-10-19T13:06:17.587Z,7.10
2018-10-19T13:08:45.777Z,6.80
2018-10-19T13:11:13.941Z,4.70
2018-10-19T13:13:42.101Z,3.70
2018-10-19T13:16:10.308Z,2.40
2018-10-19T13:18:38.505Z,1.00
2018-10-19T13:21:06.678Z,1.10
2018-10-19T13:23:34.983Z,1.40
2018-10-19T13:26:03.365Z,1.00
2018-10-19T13:28:31.740Z,1.00
2018-10-19T13:30:59.919Z,1.00
2018-10-19T13:33:28.149Z,1.00
2018-10-19T13:35:56.368Z,1.00
2018-10-19T13:38:24.909Z,1.00
2018-10-19T13:40:53.733Z,1.00
2018-10-19T13:43:22.137Z,1.00
2018-10-19T13:45:50.484Z,1.00
2018-10-19T13:48:19.081Z,1.00
2018-10-19T13:50:47.237Z,1.00
2018-10-19T13:53:15.630Z,1.00
2018-10-19T13:55:44.016Z,1.70
2018-10-19T13:58:12.301Z,2.20
2018-10-19T14:00:40.411Z,2.00
2018-10-19T14:03:08.793Z,1.60
2018-10-19T14:05:37.246Z,1.60
2018-10-19T14:08:05.339Z,2.90
2018-10-19T14:10:33.490Z,3.50
2018-10-19T14:13:01.665Z,3.00
2018-10-19T14:15:29.813Z,4.30
2018-10-19T14:17:57.965Z,5.00
2018-10-19T14:20:26.155Z,4.90
2018-10-19T14:22:54.649Z,5.00
2018-10-19T14:25:22.813Z,5.90
2018-10-19T14:27:50.974Z,5.60
2018-10-19T14:30:19.348Z,5.50
2018-10-19T14:32:47.505Z,5.50
2018-10-19T14:35:15.781Z,6.10
2018-10-19T14:37:44.825Z,5.60
2018-10-19T14:40:15.448Z,5.50
2018-10-19T14:42:44.094Z,6.00
2018-10-19T14:45:13.380Z,6.10
2018-10-19T14:47:42.304Z,6.40
2018-10-19T14:50:12.096Z,6.80
2018-10-19T14:52:40.278Z,7.00
2018-10-19T14:55:11.632Z,7.00
2018-10-19T14:57:39.825Z,7.50
2018-10-19T15:00:10.323Z,7.10
2018-10-19T15:02:38.550Z,7.80
2018-10-19T15:05:07.724Z,7.50
2018-10-19T15:07:36.479Z,7.30
2018-10-19T15:10:05.354Z,7.60
2018-10-19T15:12:33.415Z,8.00
2018-10-19T15:15:01.684Z,8.20
2018-10-19T15:17:29.809Z,8.40
2018-10-19T15:19:57.969Z,9.00
2018-10-19T15:22:26.133Z,9.60
2018-10-19T15:24:54.324Z,9.60
2018-10-19T15:27:22.485Z,9.50
2018-10-19T15:29:50.772Z,9.40
2018-10-19T15:32:18.792Z,9.40
2018-10-19T15:34:46.947Z,9.60
2018-10-19T15:37:15.150Z,9.30
2018-10-19T15:39:43.318Z,9.30
2018-10-19T15:42:11.635Z,9.80
2018-10-19T15:44:39.590Z,10.10
2018-10-19T15:47:07.769Z,10.40
2018-10-19T15:49:35.917Z,10.70
2018-10-19T15:52:04.109Z,10.70
2018-10-19T15:54:32.289Z,10.60
2018-10-19T15:57:00.524Z,10.70
2018-10-19T15:59:28.650Z,11.10
2018-10-19T16:01:56.846Z,11.30
2018-10-19T16:04:25.037Z,11.20
2018-10-19T16:06:53.205Z,11.40
2018-10-19T16:09:21.589Z,11.50
2018-10-19T16:11:49.805Z,11.70
2018-10-19T16:14:17.981Z,12.00
2018-10-19T16:16:46.141Z,12.10
2018-10-19T16:19:14.443Z,12.20
2018-10-19T16:21:42.650Z,12.00
2018-10-19T16:24:10.841Z,12.80
2018-10-19T16:26:39.028Z,12.90
2018-10-19T16:29:07.385Z,12.90
2018-10-19T16:31:35.585Z,13.20
2018-10-19T16:34:03.734Z,13.20
2018-10-19T16:36:31.949Z,13.40
2018-10-19T16:39:00.127Z,13.60
2018-10-19T16:41:28.270Z,13.50
2018-10-19T16:43:56.709Z,13.60
2018-10-19T16:46:24.901Z,13.70
2018-10-19T16:48:52.997Z,13.80
2018-10-19T16:51:21.251Z,14.00
2018-10-19T16:53:49.830Z,14.20
2018-10-19T16:56:18.010Z,14.20
2018-10-19T16:58:46.167Z,14.10
2018-10-19T17:01:14.370Z,14.20
2018-10-19T17:03:42.488Z,14.30
2018-10-19T17:06:10.738Z,14.40
2018-10-19T17:08:38.870Z,14.30
2018-10-19T17:11:07.026Z,15.00
2018-10-19T17:13:35.190Z,14.70
2018-10-19T17:16:03.358Z,15.10
2018-10-19T17:18:31.522Z,15.10
2018-10-19T17:20:59.720Z,14.90
2018-10-19T17:23:27.850Z,15.10
2018-10-19T17:25:55.961Z,14.80
2018-10-19T17:28:24.161Z,14.80
2018-10-19T17:30:52.384Z,15.20
2018-10-19T17:33:20.595Z,15.30
2018-10-19T17:35:48.660Z,14.50
2018-10-19T17:38:16.853Z,15.70
2018-10-19T17:40:45.041Z,15.60
2018-10-19T17:43:13.277Z,15.80
2018-10-19T17:45:41.401Z,15.70
2018-10-19T17:48:09.590Z,16.30
2018-10-19T17:50:37.821Z,15.80
2018-10-19T17:53:06.458Z,16.10
2018-10-19T17:55:34.638Z,16.20
2018-10-19T17:58:02.793Z,16.30
2018-10-19T18:00:31.170Z,16.40
2018-10-19T18:02:59.377Z,16.60
2018-10-19T18:05:27.508Z,16.80
2018-10-19T18:07:55.652Z,17.10
2018-10-19T18:10:23.821Z,17.10
2018-10-19T18:12:51.970Z,17.10
2018-10-19T18:15:20.178Z,17.50
2018-10-19T18:17:48.328Z,17.50
2018-10-19T18:20:16.693Z,17.60
2018-10-19T18:22:44.948Z,17.80
2018-10-19T18:25:13.097Z,17.80
2018-10-19T18:27:41.325Z,17.70
2018-10-19T18:30:09.578Z,18.30
2018-10-19T18:32:38.581Z,17.80
2018-10-19T18:35:08.279Z,17.90
2018-10-19T18:37:36.401Z,17.90
2018-10-19T18:40:05.697Z,18.00
2018-10-19T18:42:33.894Z,18.90
2018-10-19T18:45:02.158Z,18.60
2018-10-19T18:47:30.341Z,19.20
2018-10-19T18:49:58.612Z,18.90
2018-10-19T18:52:26.754Z,18.80
2018-10-19T18:54:55.026Z,19.00
2018-10-19T18:57:23.158Z,18.90
2018-10-19T18:59:51.302Z,19.00
2018-10-19T19:02:19.468Z,19.00
2018-10-19T19:04:47.823Z,19.30
2018-10-19T19:07:16.137Z,19.30
2018-10-19T19:09:49.621Z,19.30
2018-10-19T19:12:17.837Z,19.30
2018-10-19T19:14:46.041Z,19.60
2018-10-19T19:17:14.273Z,19.70
2018-10-19T19:19:42.429Z,19.60
2018-10-19T19:22:10.588Z,19.80
2018-10-19T19:24:44.106Z,20.10
2018-10-19T19:27:12.298Z,20.10
2018-10-19T19:29:40.433Z,20.50
2018-10-19T19:32:08.723Z,20.90
2018-10-19T19:34:36.781Z,20.60
2018-10-19T19:37:04.973Z,20.90
2018-10-19T19:39:33.121Z,20.80
2018-10-19T19:42:06.604Z,20.80
2018-10-19T19:44:34.794Z,20.80
2018-10-19T19:47:03.157Z,20.80
2018-10-19T19:49:37.101Z,20.70
2018-10-19T19:52:05.437Z,20.70
2018-10-19T19:54:33.810Z,20.80
2018-10-19T19:57:02.138Z,20.70
2018-10-19T19:59:30.522Z,21.00
2018-10-19T20:01:58.796Z,21.10
2018-10-19T20:04:26.930Z,21.10
2018-10-19T20:06:55.113Z,21.10
2018-10-19T20:09:23.269Z,21.20
2018-10-19T20:11:51.462Z,21.50
2018-10-19T20:14:19.646Z,21.40
2018-10-19T20:16:47.841Z,21.50
2018-10-19T20:19:16.054Z,21.80
2018-10-19T20:21:44.433Z,22.20
2018-10-19T20:24:12.570Z,22.30
2018-10-19T20:26:41.105Z,22.20
2018-10-19T20:29:09.312Z,22.40
2018-10-19T20:31:37.441Z,22.40
2018-10-19T20:34:05.722Z,22.60
2018-10-19T20:36:33.987Z,22.20
2018-10-19T20:39:02.147Z,22.20
2018-10-19T20:41:30.335Z,22.50
2018-10-19T20:43:58.532Z,22.50
2018-10-19T20:46:26.681Z,22.50
2018-10-19T20:48:54.914Z,22.50
2018-10-19T20:51:23.038Z,22.70
2018-10-19T20:53:51.294Z,22.60
2018-10-19T20:56:19.514Z,22.80
2018-10-19T20:58:47.722Z,22.80
2018-10-19T21:01:15.923Z,22.90
2018-10-19T21:03:44.243Z,23.30
2018-10-19T21:06:12.409Z,23.20
2018-10-19T21:08:40.581Z,23.20
2018-10-19T21:11:08.876Z,23.10
2018-10-19T21:13:37.067Z,22.70
2018-10-19T21:16:05.466Z,22.90
2018-10-19T21:18:33.661Z,23.40
2018-10-19T21:21:01.970Z,23.60
2018-10-19T21:23:30.165Z,23.80
2018-10-19T21:25:58.368Z,23.80
2018-10-19T21:28:26.557Z,23.80
2018-10-19T21:30:54.778Z,23.80
2018-10-19T21:33:22.953Z,24.50
2018-10-19T21:35:51.122Z,24.60
2018-10-19T21:38:19.312Z,24.80
2018-10-19T21:40:47.786Z,25.00
2018-10-19T21:43:15.977Z,25.40
2018-10-19T21:45:44.201Z,25.10
2018-10-19T21:48:12.424Z,25.10
2018-10-19T21:50:40.566Z,25.10
2018-10-19T21:53:08.872Z,25.10
2018-10-19T21:55:36.981Z,24.50
2018-10-19T21:58:05.449Z,24.60
2018-10-19T22:00:33.629Z,24.90
2018-10-19T22:03:01.807Z,25.00
2018-10-19T22:05:29.981Z,25.10
2018-10-19T22:07:58.178Z,25.20
2018-10-19T22:10:26.323Z,25.30
2018-10-19T22:12:54.551Z,25.30
2018-10-19T22:15:22.806Z,25.40
2018-10-19T22:17:51.025Z,25.60
2018-10-19T22:20:19.853Z,25.40
2018-10-19T22:22:48.071Z,25.30
2018-10-19T22:25:16.281Z,25.30
2018-10-19T22:27:44.828Z,25.20
2018-10-19T22:30:13.021Z,25.50
2018-10-19T22:32:41.238Z,25.50
2018-10-19T22:35:09.430Z,25.70
2018-10-19T22:37:37.618Z,26.10
2018-10-19T22:40:05.938Z,26.30
2018-10-19T22:42:34.154Z,26.30
2018-10-19T22:45:02.358Z,25.90
2018-10-19T22:47:30.481Z,26.10
2018-10-19T22:49:58.670Z,26.40
2018-10-19T22:52:26.813Z,26.70
2018-10-19T22:54:54.982Z,26.60
2018-10-19T22:57:23.212Z,26.90
2018-10-19T22:59:51.541Z,26.60
2018-10-19T23:02:19.713Z,27.00
2018-10-19T23:04:48.425Z,27.40
2018-10-19T23:07:16.709Z,27.30
2018-10-19T23:09:44.814Z,27.30
2018-10-19T23:12:13.662Z,27.30
2018-10-19T23:14:41.855Z,27.10
2018-10-19T23:17:10.172Z,27.30
2018-10-19T23:19:38.213Z,27.60
2018-10-19T23:22:06.446Z,27.40
2018-10-19T23:24:34.605Z,27.60
2018-10-19T23:27:02.739Z,27.40
2018-10-19T23:29:30.926Z,27.60
2018-10-19T23:31:59.102Z,27.50
2018-10-19T23:34:27.241Z,28.20
2018-10-19T23:36:55.449Z,27.60
2018-10-19T23:39:23.633Z,27.60
2018-10-19T23:41:51.833Z,28.00
2018-10-19T23:44:20.036Z,27.90
2018-10-19T23:46:48.209Z,27.70
2018-10-19T23:49:16.355Z,28.00
2018-10-19T23:51:44.530Z,27.90
2018-10-19T23:54:12.694Z,27.30
2018-10-19T23:56:41.050Z,27.90
2018-10-19T23:59:09.454Z,27.60
